Waynesville-St. Robert Regional Forney field
KTBN : now visible

Airfield :











YOU CAN JOIN US ON...

 
LOGIN :

Register | Disclaimer

   EN    FR    IT 

 









Legend :    VFR   Marginal VFR   IFR   Intensive IFR   Very Intensive IFR
Visi :
Ceiling :
>= 8 km
>= 3000ft
5 to 8 km
1000 to 3000 ft
1500m to 5 km
500 to 1000 ft
800 to 1500m
200 to 500 ft
< 800m
< 200 ft
Symbols :   Thunderstorms  Fog  Heavy snow  Heavy precipitations  Wind > 20 kt






- Airport Elevation : 1159 ft
- IATA code : TBN


KTBN - Waynesville-St. Robert Regional Forney field

CURRENT METAR :
  • 180651Z AUTO 34012G19KT 10SM SCT008 SCT017 OVC023 10/08 A2994 RMK AO2 CIG 007V023 SLP142

EXPIRED METARs :
  • 180641Z AUTO 33012G19KT 10SM BKN007 OVC019 11/11 A2993 RMK AO2 CIG 005 RWY33 SLP138
  • 180556Z AUTO 00000KT 8SM OVC006 11/11 A2991 RMK AO2 CIG 002 RWY33 SLP131 T01110111 10117 20111 401230076 51012
  • 180456Z AUTO 22005KT 8SM OVC004 11/11 A2991 RMK AO2 CIG 002 RWY33 SLP132 T01120112
  • 180356Z AUTO 24006KT 9SM OVC004 11/11 A2990 RMK AO2 CIG 003 RWY33 SLP128 T01130113

TAF N/A



MET'MAP, your aeronautical weather chart ! - Copyright ORBIFLY December 2007 - Disclaimer

ORBIFLY MET'MAP TEAM :

Programming & Development : Alexandra Zaïnal
Concept & original design : Baudouin d'Aumeries
Assistance for programming : Marc-Olivier Méhu
Technical & hardware support : Manuel Goepfert

Contact : metmap@orbifly.com




SOURCES & CREDITS :

   NOAA       Earth
Advisory